Latest Weather Observations for Neptune Island

IDS60801

Issued at 2:05 pm CST Saturday 2 August 2014 (issued every 30 minutes, with the page automatically refreshed every 10 minutes)

About weather observations | Map of weather stations | Latest weather observations for SA | Other Formats
Station Details ID: 018115 Name: NEPTUNE ISLAND Lat: -35.34 Lon: 136.12 Height: 32.0 m
Data from the previous 72 hours. | See also: Recent months at Neptune Island
Date/Time
CST
Temp
°C
App
Temp
°C
Dew
Point
Rel
Hum
%
Delta-T
°C
Wind Press
QNH
hPa
Press
MSL
hPa
Rain
since 9 am
mm
Dir
 
Spd
km/h
Gust
km/h
Spd
kts
Gust
kts
02/02:00pm 13.9 8.7 7.4 65 3.2 N 24 30 13 16 1029.4 - 0.6
02/01:30pm 12.3 7.1 7.4 72 2.4 N 24 30 13 16 1029.7 1029.7 0.6
02/01:00pm 11.7 6.4 6.8 72 2.3 NNE 24 33 13 18 1030.0 - 0.6
02/12:30pm 12.2 7.7 6.3 67 2.8 N 19 22 10 12 1030.5 1030.5 0.6
02/12:00pm 12.3 10.0 7.4 72 2.4 NW 9 20 5 11 1030.8 1030.8 0.6
02/11:30am 11.6 6.9 5.9 68 2.6 N 20 24 11 13 1031.2 1031.2 0.0
02/11:00am 12.0 7.0 6.3 68 2.7 N 22 28 12 15 1031.2 - 0.0
02/10:30am 11.6 5.4 6.3 70 2.5 N 28 32 15 17 1031.3 1031.3 0.0
02/10:00am 11.9 7.3 5.5 65 3.0 N 19 24 10 13 1031.1 - 0.0
02/09:30am 11.8 8.0 5.7 66 2.8 N 15 20 8 11 1030.8 1030.8 0.0
02/09:00am 11.2 6.5 5.9 70 2.4 N 20 24 11 13 1030.9 1030.9 -
02/08:30am 10.6 5.7 5.2 69 2.4 NNW 20 24 11 13 1030.7 1030.7 -
02/08:00am 10.7 7.8 4.4 65 2.8 N 9 15 5 8 1030.2 - -
02/07:30am 10.6 5.9 5.2 69 2.4 NNE 19 24 10 13 1029.8 1029.8 -
02/07:00am 10.4 7.6 5.2 70 2.4 W 9 13 5 7 1029.7 - -
02/06:30am 10.8 5.7 5.8 71 2.3 WNW 22 30 12 16 1029.3 1029.3 -
02/06:00am 10.8 7.9 4.5 65 2.8 NNE 9 13 5 7 1029.2 1029.2 -
02/05:30am 10.6 7.3 4.7 67 2.6 NE 11 17 6 9 1029.0 1029.0 -
02/05:00am 10.2 7.3 4.4 67 2.6 E 9 13 5 7 1028.9 - -
02/04:30am 10.5 6.8 4.6 67 2.6 E 13 17 7 9 1028.9 1028.9 -
02/04:00am 11.0 8.5 3.8 61 3.2 ENE 6 9 3 5 1028.9 - -
02/03:30am 10.5 - 4.0 64 2.9 - - - - - 1028.9 1028.9 -
02/03:00am 10.3 6.9 4.0 65 2.8 ESE 11 15 6 8 1029.0 1029.0 1.2
02/02:30am 11.3 7.1 3.8 60 3.3 SSW 15 20 8 11 1028.9 1028.9 1.2
02/02:00am 11.2 7.7 3.7 60 3.3 S 11 17 6 9 1028.8 - 1.2
02/01:30am 11.1 7.4 4.3 63 3.0 S 13 20 7 11 1028.7 1028.7 1.2
02/01:00am 11.2 6.7 4.2 62 3.1 S 17 24 9 13 1028.6 - 1.2
02/12:30am 10.8 7.5 4.3 64 2.9 WSW 11 20 6 11 1028.7 1028.7 1.2
02/12:08am 11.1 4.7 5.2 67 2.7 SSW 28 33 15 18 1028.6 - 0.8
02/12:00am 11.4 7.7 4.4 62 3.1 WSW 13 15 7 8 1028.7 1028.7 0.6
 
Date/Time
CST
Temp
°C
App
Temp
°C
Dew
Point
Rel
Hum
%
Delta-T
°C
Wind Press
QNH
hPa
Press
MSL
hPa
Rain
since 9 am
mm
Dir
 
Spd
km/h
Gust
km/h
Spd
kts
Gust
kts
01/11:30pm 11.4 5.8 5.3 66 2.8 SW 24 35 13 19 1028.6 1028.6 0.6
01/11:00pm 11.6 5.7 4.1 60 3.4 S 24 28 13 15 1028.3 - 0.6
01/10:30pm 11.5 6.9 3.5 58 3.5 S 17 24 9 13 1028.4 1028.4 0.6
01/10:00pm 11.7 6.9 5.6 66 2.8 S 20 24 11 13 1028.4 - 0.6
01/09:30pm 11.2 3.1 5.1 66 2.8 S 37 41 20 22 1028.1 1028.1 0.6
01/09:00pm 11.4 3.5 4.4 62 3.1 S 35 43 19 23 1027.8 1027.8 0.6
01/08:30pm 11.8 6.7 4.3 60 3.4 S 20 30 11 16 1027.6 1027.6 0.6
01/08:00pm 11.5 4.9 2.0 52 4.1 SSW 26 35 14 19 1027.2 - 0.6
01/07:30pm 11.6 5.0 4.1 60 3.3 SSW 28 35 15 19 1026.9 1026.9 0.6
01/07:00pm 11.6 6.4 5.3 65 2.9 S 22 28 12 15 1026.5 - 0.6
01/06:30pm 11.9 5.1 5.3 64 3.0 SSW 30 37 16 20 1025.9 1025.9 0.6
01/06:00pm 11.2 6.0 5.5 68 2.6 SSW 22 28 12 15 1025.5 1025.5 0.6
01/05:53pm 10.9 3.1 4.8 66 2.8 SSW 35 54 19 29 1025.4 - 0.6
01/05:30pm 11.7 4.1 5.6 66 2.8 SSW 35 44 19 24 1025.0 1025.0 0.6
01/05:00pm 11.9 3.9 3.9 58 3.6 SSW 35 46 19 25 1024.6 - 0.6
01/04:30pm 11.7 4.1 5.6 66 2.8 S 35 44 19 24 1024.2 1024.2 0.6
01/04:00pm 11.7 2.8 4.9 63 3.1 S 41 48 22 26 1023.7 - 0.6
01/03:30pm 12.7 4.0 6.1 64 3.1 SSW 41 54 22 29 1023.5 1023.5 0.6
01/03:00pm 12.6 5.0 6.0 64 3.1 SSW 35 44 19 24 1023.2 1023.2 0.6
01/02:30pm 12.0 2.2 5.4 64 3.0 S 46 54 25 29 1022.9 1022.9 0.6
01/02:00pm 12.5 3.4 5.9 64 3.1 SSW 43 54 23 29 1022.4 - 0.6
01/01:30pm 12.7 2.2 5.6 62 3.3 SW 50 63 27 34 1022.1 1022.1 0.6
01/01:15pm 12.0 3.4 6.3 68 2.7 SW 41 59 22 32 1022.0 - 0.6
01/01:00pm 12.0 3.0 6.3 68 2.7 SSW 43 52 23 28 1022.1 - 0.6
01/12:30pm 12.8 2.5 6.4 65 3.0 SSW 50 65 27 35 1021.6 1021.6 0.6
01/12:00pm 12.8 2.4 6.2 64 3.1 SSW 50 61 27 33 1021.3 1021.3 0.6
01/11:30am 12.4 0.3 6.2 66 2.9 SSW 59 70 32 38 1021.0 1021.0 0.6
01/11:19am 12.4 1.3 6.2 66 2.9 SSW 54 72 29 39 1020.6 - 0.6
01/11:00am 12.3 0.1 5.7 64 3.1 SSW 59 70 32 38 1020.3 - 0.6
01/10:30am 12.2 0.6 6.7 69 2.6 SW 57 70 31 38 1020.0 1020.0 0.6
01/10:00am 11.3 -2.0 6.0 70 2.5 SW 65 76 35 41 1019.3 - 0.6
01/09:35am 11.0 -3.4 5.1 67 2.7 SW 70 89 38 48 1018.4 - 0.6
01/09:30am 11.3 -2.7 6.0 70 2.5 SW 69 83 37 45 1018.2 1018.2 0.6
01/09:26am 11.1 -2.9 6.3 72 2.3 SSW 69 82 37 44 1018.3 - 0.6
01/09:16am 10.5 0.6 6.5 76 1.9 SW 48 67 26 36 1018.7 - 0.6
01/09:09am 9.7 -2.1 5.7 76 1.8 SSW 57 67 31 36 1018.6 - 0.4
01/09:07am 9.7 -5.8 5.5 75 1.9 SW 76 98 41 53 1018.4 - 0.4
01/09:05am 10.1 -6.8 5.1 71 2.3 SW 83 98 45 53 1017.7 - 0.0
01/09:04am 11.1 -1.8 5.8 70 2.5 SW 63 98 34 53 1017.5 - 0.0
01/09:00am 11.9 1.1 6.2 68 2.7 SSW 52 74 28 40 1017.8 1017.8 -
01/08:57am 11.5 1.4 5.6 67 2.7 SSW 48 69 26 37 1017.7 - -
01/08:51am 10.9 1.9 6.6 75 2.0 SSW 43 50 23 27 1018.0 - -
01/08:42am 11.5 -1.8 5.6 67 2.7 SW 65 87 35 47 1017.2 - -
01/08:30am 11.6 -1.9 4.8 63 3.1 SW 65 80 35 43 1016.9 1016.9 -
01/08:00am 11.2 -3.3 3.7 60 3.3 SW 69 87 37 47 1016.3 - -
01/07:36am 11.5 -1.8 5.6 67 2.7 SW 65 83 35 45 1016.0 - -
01/07:30am 11.4 -2.5 4.6 63 3.1 SW 67 83 36 45 1015.8 1015.7 -
01/07:15am 11.5 -2.2 5.6 67 2.7 SW 67 85 36 46 1015.7 - -
01/07:00am 11.5 -2.7 5.2 65 2.9 SW 69 83 37 45 1015.0 - -
01/06:50am 11.3 -3.1 4.3 62 3.1 SW 69 87 37 47 1015.0 - -
01/06:30am 11.3 -3.1 4.3 62 3.1 SW 69 83 37 45 1014.4 1014.4 -
01/06:01am 11.3 -3.0 5.6 68 2.6 SW 70 89 38 48 1014.1 - -
01/06:00am 11.2 -3.4 5.9 70 2.5 SW 72 89 39 48 1014.1 1014.1 -
01/05:30am 11.1 -3.5 4.1 62 3.1 SW 70 93 38 50 1013.1 1013.1 -
01/05:21am 11.0 -4.4 4.0 62 3.1 SW 74 93 40 50 1012.7 - -
01/05:00am 11.2 -3.8 5.7 69 2.5 SW 74 91 40 49 1012.6 - -
01/04:38am 10.8 -4.1 4.5 65 2.8 SW 72 91 39 49 1012.0 - -
01/04:30am 11.0 -3.7 5.3 68 2.6 SW 72 85 39 46 1012.1 1012.1 -
01/04:00am 10.7 -4.0 5.5 70 2.4 SW 72 93 39 50 1011.6 - -
01/03:34am 10.5 -5.3 5.7 72 2.2 SW 78 96 42 52 1011.2 - -
01/03:30am 11.3 - 6.0 70 2.5 - - - - - 1011.2 1011.2 -
01/03:07am 11.1 -4.4 5.2 67 2.7 WSW 76 102 41 55 1010.6 - 4.2
01/03:00am 11.4 -3.6 5.7 68 2.6 WSW 74 89 40 48 1010.7 1010.7 4.2
01/02:30am 10.9 -3.9 4.8 66 2.8 WSW 72 95 39 51 1010.5 1010.5 4.2
01/02:00am 10.8 -3.8 6.0 72 2.2 WSW 72 91 39 49 1010.6 - 4.2
01/01:30am 10.6 -4.1 5.4 70 2.4 SW 72 93 39 50 1010.2 1010.2 4.0
01/01:10am 9.8 -4.3 5.6 75 1.9 SW 69 87 37 47 1010.4 - 4.0
01/01:00am 9.2 -5.8 5.8 79 1.6 SW 74 91 40 49 1010.8 - 4.0
01/12:53am 9.1 -5.6 5.5 78 1.6 SW 72 91 39 49 1010.5 - 4.0
01/12:52am 9.7 -4.4 6.4 80 1.5 SW 70 80 38 43 1010.5 - 4.0
01/12:46am 9.6 -9.5 5.4 75 1.9 SW 95 115 51 62 1009.8 - 3.8
01/12:45am 10.0 -5.1 5.2 72 2.2 SW 74 115 40 62 1009.8 - 3.8
01/12:41am 11.0 -2.3 5.7 70 2.5 SW 65 85 35 46 1010.0 - 3.6
01/12:30am 10.4 -2.7 5.2 70 2.4 SW 63 80 34 43 1010.1 1010.1 3.6
01/12:09am 9.7 -5.5 4.7 71 2.2 SW 74 93 40 50 1010.3 - 3.6
01/12:04am 9.3 -7.2 4.3 71 2.2 SW 80 93 43 50 1010.1 - 3.6
01/12:01am 10.2 -2.3 5.8 74 2.0 SW 61 80 33 43 1010.3 - 3.4
01/12:00am 10.1 -2.5 5.7 74 2.0 SW 61 76 33 41 1010.4 1010.4 3.4
 
Date/Time
CST
Temp
°C
App
Temp
°C
Dew
Point
Rel
Hum
%
Delta-T
°C
Wind Press
QNH
hPa
Press
MSL
hPa
Rain
since 9 am
mm
Dir
 
Spd
km/h
Gust
km/h
Spd
kts
Gust
kts
31/11:46pm 9.9 -4.3 5.9 76 1.8 SW 70 89 38 48 1010.3 - 3.4
31/11:43pm 10.1 -4.0 5.7 74 2.0 SW 69 82 37 44 1010.3 - 3.4
31/11:34pm 11.2 -1.1 6.9 75 2.0 WSW 61 80 33 43 1010.2 - 3.4
31/11:30pm 10.8 -2.5 6.0 72 2.2 WSW 65 80 35 43 1010.0 1010.0 3.4
31/11:00pm 10.3 -2.7 5.3 71 2.3 WSW 63 96 34 52 1010.2 - 3.2
31/10:30pm 10.2 -2.4 5.6 73 2.1 SW 61 76 33 41 1010.2 1010.2 3.2
31/10:11pm 11.2 -2.7 4.7 64 2.9 WSW 67 87 36 47 1009.5 - 2.8
31/10:00pm 11.2 -2.0 4.7 64 2.9 WSW 63 80 34 43 1009.9 - 2.8
31/09:57pm 11.1 -1.3 4.6 64 2.9 W 59 80 32 43 1009.7 - 2.8
31/09:44pm 10.9 0.7 5.4 69 2.5 W 48 57 26 31 1010.0 - 2.8
31/09:30pm 10.7 -3.6 4.4 65 2.8 WSW 69 89 37 48 1009.9 1009.9 2.8
31/09:23pm 10.7 -4.0 3.5 61 3.2 WSW 70 89 38 48 1009.4 - 2.8
31/09:00pm 10.9 -3.4 4.8 66 2.8 WSW 69 83 37 45 1009.4 1009.4 2.8
31/08:51pm 10.9 -3.6 3.7 61 3.2 WSW 69 87 37 47 1009.3 - 2.8
31/08:30pm 10.6 -4.7 4.5 66 2.7 WSW 74 87 40 47 1009.4 1009.4 2.8
31/08:00pm 10.6 -4.0 4.1 64 2.9 W 70 93 38 50 1008.8 - 2.8
31/07:40pm 10.9 -3.1 4.1 63 3.0 WSW 67 91 36 49 1008.7 - 2.8
31/07:30pm 11.4 -3.0 3.9 60 3.4 WSW 69 83 37 45 1008.8 1008.8 2.8
31/07:12pm 11.4 -2.1 4.8 64 3.0 WSW 65 83 35 45 1008.6 - 2.8
31/07:00pm 11.4 -1.4 4.8 64 3.0 WSW 61 74 33 40 1008.5 - 2.8
31/06:30pm 10.5 -2.2 5.3 70 2.4 WSW 61 80 33 43 1008.4 1008.4 2.8
31/06:12pm 9.9 -3.8 3.6 65 2.8 WSW 65 93 35 50 1007.9 - 2.8
31/06:00pm 10.3 -3.4 4.0 65 2.8 WSW 65 80 35 43 1007.8 1007.8 2.8
31/05:46pm 10.8 -2.6 5.3 69 2.5 WSW 65 91 35 49 1007.6 - 2.6
31/05:30pm 10.6 -3.6 5.2 69 2.5 WSW 69 82 37 44 1007.5 1007.5 2.6
31/05:00pm 10.2 -4.1 5.8 74 2.0 WSW 70 83 38 45 1007.1 - 2.6
31/04:30pm 10.4 -3.1 5.0 69 2.5 WSW 65 83 35 45 1006.4 1006.4 1.8
31/04:04pm 11.5 -1.9 5.4 66 2.8 WSW 65 83 35 45 1006.2 - 1.8
31/04:00pm 11.5 -2.2 5.6 67 2.7 WSW 67 83 36 45 1005.9 - 1.8
31/03:35pm 11.1 -2.1 6.3 72 2.3 WSW 65 83 35 45 1005.8 - 1.8
31/03:30pm 10.7 -3.3 6.3 74 2.1 WSW 69 83 37 45 1005.9 1005.9 1.8
31/03:05pm 9.7 -6.2 7.0 83 1.3 SW 80 98 43 53 1005.6 - 1.8
31/03:00pm 9.3 -7.3 6.2 81 1.4 SW 83 98 45 53 1005.3 1005.3 1.8
31/02:56pm 9.6 -7.8 6.0 78 1.7 SW 87 98 47 53 1004.7 - 1.8
31/02:30pm 10.7 -3.0 7.4 80 1.6 SW 69 89 37 48 1004.9 1004.9 1.8
31/02:10pm 10.3 -3.5 7.2 81 1.5 WSW 69 87 37 47 1004.1 - 1.4
31/02:00pm 11.6 -1.3 7.5 76 2.0 WSW 65 76 35 41 1004.1 - 1.2
31/01:30pm 11.6 -2.4 8.5 81 1.5 WSW 72 91 39 49 1003.2 1003.2 1.2
31/01:00pm 11.3 -2.5 7.8 79 1.7 WSW 70 91 38 49 1003.2 - 1.0
31/12:30pm 11.6 -4.0 8.3 80 1.6 WSW 80 98 43 53 1002.8 1002.8 1.0
31/12:20pm 11.5 -6.7 7.8 78 1.8 WSW 93 111 50 60 1002.7 - 1.0
31/12:14pm 12.0 -6.6 7.5 74 2.2 WSW 95 104 51 56 1002.2 - 1.0
31/12:00pm 13.1 -0.4 9.0 76 2.1 W 70 91 38 49 1002.5 1002.5 1.0
31/11:30am 11.6 -1.8 8.8 83 1.4 W 69 87 37 47 1003.2 1003.2 1.0
31/11:07am 12.3 -0.8 9.9 85 1.2 WSW 69 87 37 47 1003.8 - 0.8
31/11:00am 11.7 -2.6 8.7 82 1.5 WSW 74 87 40 47 1003.2 - 0.8
31/10:30am 11.2 -2.7 8.8 85 1.2 WSW 72 87 39 47 1003.2 1003.2 0.8
31/10:07am 12.1 0.5 9.8 86 1.2 WSW 61 80 33 43 1003.2 - 0.6
31/10:00am 12.0 1.2 9.9 87 1.1 WSW 57 69 31 37 1003.4 - 0.6
31/09:30am 11.6 -0.3 10.0 90 0.8 SW 63 74 34 40 1003.1 1003.1 0.4
31/09:09am 11.8 -1.0 9.7 87 1.1 WSW 67 85 36 46 1002.6 - 0.2
31/09:00am 12.3 0.4 10.2 87 1.1 WSW 63 76 34 41 1002.5 1002.5 -
31/08:30am 12.5 1.5 10.4 87 1.1 WSW 59 70 32 38 1001.8 1001.8 -
31/08:27am 12.6 1.5 10.1 85 1.3 WSW 59 70 32 38 1001.8 - -
31/08:23am 13.5 0.5 10.3 81 1.7 WNW 69 102 37 55 1001.0 - -
31/08:00am 15.6 2.9 11.4 76 2.3 WNW 69 85 37 46 1001.0 - -
31/07:42am 15.5 3.6 11.5 77 2.2 NW 65 83 35 45 1000.9 - -
31/07:30am 15.4 3.9 11.4 77 2.2 WNW 63 78 34 42 1001.2 1001.2 -
31/07:08am 15.4 3.4 11.2 76 2.2 WNW 65 85 35 46 1001.4 - -
31/07:00am 15.3 3.7 11.1 76 2.2 WNW 63 80 34 43 1001.7 - -
31/06:30am 15.4 3.8 11.0 75 2.4 WNW 63 82 34 44 1001.8 1001.8 -
31/06:20am 15.3 3.3 10.9 75 2.3 WNW 65 83 35 45 1001.6 - -
31/06:00am 15.3 2.5 10.9 75 2.4 WNW 69 82 37 44 1002.4 1002.4 -
31/05:39am 15.3 3.6 10.9 75 2.3 WNW 63 82 34 44 1002.5 - -
31/05:30am 15.3 2.9 10.9 75 2.4 WNW 67 82 36 44 1002.2 1002.2 -
31/05:19am 15.3 3.3 10.9 75 2.3 WNW 65 83 35 45 1002.4 - -
31/05:00am 15.2 2.3 10.4 73 2.5 WNW 69 83 37 45 1002.7 - -
31/04:43am 15.2 4.5 10.4 73 2.5 WNW 57 76 31 41 1003.1 - -
31/04:42am 15.3 4.9 10.7 74 2.4 WNW 56 65 30 35 1003.1 - -
31/04:30am 15.3 1.4 10.3 72 2.6 WNW 74 95 40 51 1002.8 1002.8 -
31/04:09am 15.4 2.4 10.8 74 2.4 WNW 70 91 38 49 1003.1 - -
31/04:00am 15.4 2.6 11.0 75 2.3 WNW 69 85 37 46 1003.4 - -
31/03:33am 15.4 2.7 11.4 77 2.1 WNW 69 87 37 47 1003.8 - -
31/03:30am 15.4 - 11.4 77 2.2 - - - - - 1003.8 1003.8 -
31/03:00am 15.5 2.2 11.1 75 2.4 WNW 72 91 39 49 1004.0 1004.0 0.2
31/02:30am 15.3 2.5 10.9 75 2.3 WNW 69 89 37 48 1004.6 1004.6 0.2
31/02:09am 15.4 4.2 11.2 76 2.2 WNW 61 80 33 43 1005.1 - 0.2
31/02:00am 15.4 4.1 11.0 75 2.3 WNW 61 76 33 41 1005.2 - 0.2
31/01:30am 15.3 4.8 11.1 76 2.3 WNW 57 74 31 40 1005.4 1005.4 0.2
31/01:00am 15.4 4.3 11.6 78 2.0 WNW 61 74 33 40 1005.9 - 0.2
31/12:30am 15.4 5.3 11.6 78 2.1 WNW 56 74 30 40 1006.6 1006.6 0.2
31/12:00am 15.7 5.8 12.3 80 1.9 WNW 56 74 30 40 1007.1 1007.1 0.2
 
Date/Time
CST
Temp
°C
App
Temp
°C
Dew
Point
Rel
Hum
%
Delta-T
°C
Wind Press
QNH
hPa
Press
MSL
hPa
Rain
since 9 am
mm
Dir
 
Spd
km/h
Gust
km/h
Spd
kts
Gust
kts
30/11:52pm 15.5 5.8 11.9 79 2.0 WNW 54 74 29 40 1007.3 - 0.2
30/11:30pm 15.5 6.0 12.3 81 1.8 WNW 54 65 29 35 1007.7 1007.7 0.2
30/11:00pm 15.5 7.8 13.3 87 1.2 WNW 46 56 25 30 1008.3 - 0.2
30/10:30pm 15.3 6.8 13.1 87 1.2 NW 50 59 27 32 1008.7 1008.7 0.2
30/10:00pm 15.3 7.5 13.0 86 1.3 WNW 46 69 25 37 1009.1 - 0.2
30/09:55pm 15.2 7.8 12.9 86 1.3 WNW 44 67 24 36 1009.5 - 0.2
30/09:30pm 15.5 6.1 12.8 84 1.5 NW 54 61 29 33 1009.5 1009.5 0.0
30/09:00pm 15.5 6.5 12.8 84 1.5 NW 52 65 28 35 1010.0 1010.0 0.0
30/08:30pm 15.5 6.1 12.6 83 1.6 NW 54 63 29 34 1010.2 1010.2 0.0
30/08:00pm 15.4 5.9 12.5 83 1.6 NW 54 69 29 37 1010.6 - 0.0
30/07:30pm 15.5 5.6 12.4 82 1.7 NW 56 65 30 35 1010.8 1010.8 0.0
30/07:00pm 15.6 6.4 12.2 80 1.9 NW 52 61 28 33 1011.1 - 0.0
30/06:30pm 15.6 7.6 12.5 82 1.7 NW 46 57 25 31 1011.3 1011.3 0.0
30/06:15pm 15.5 8.1 12.3 81 1.8 NW 43 63 23 34 1011.0 - 0.0
30/06:00pm 15.7 7.4 12.6 82 1.7 NW 48 61 26 33 1011.2 1011.2 0.0
30/05:30pm 15.6 7.0 12.9 84 1.5 NW 50 61 27 33 1011.1 1011.1 0.0
30/05:00pm 15.6 7.4 12.9 84 1.5 NW 48 59 26 32 1011.2 - 0.0
30/04:30pm 15.8 6.1 12.9 83 1.6 NW 56 67 30 36 1011.2 1011.2 0.0
30/04:00pm 16.1 7.2 13.0 82 1.7 NW 52 63 28 34 1011.4 - 0.0
30/03:30pm 16.3 7.5 13.4 83 1.6 NW 52 63 28 34 1011.4 1011.4 0.0
30/03:00pm 16.1 7.3 13.4 84 1.5 NW 52 61 28 33 1011.7 1011.7 0.0
30/02:30pm 16.6 7.8 13.5 82 1.7 NW 52 63 28 34 1012.0 1012.0 0.0

Other Formats:

Comma delimited format used in spreadsheet applications
http://www.bom.gov.au/fwo/IDS60801/IDS60801.94804.axf

JavaScript Object Notation format (JSON) in row-major order
http://www.bom.gov.au/fwo/IDS60801/IDS60801.94804.json